Biloxi, MS

11:58 PM CDT on September 16, 2014 (GMT -0500)
Keesler Air Force Base | Change Station
CLOSE
Current Station
Airport
Location: Biloxi,
Elevation: 33 ft
Nearby Weather Stations

Elev 33 ft 30.41 °N, 88.92 °W | Updated 1 hour ago

Mostly Cloudy
Mostly Cloudy
74 °F
Feels Like 74 °F
N
2
Wind Variable Wind from North

Today
High -- | Low -- °F
--% Chance of Precip.
Yesterday
High -- | Low -- °F
Precip. -- in
6:40 AM 6:59 PM
Last Quarter, 39% visible
Pressure 30.02 in
Visibility 10.0 miles
Clouds Few 600 ft
Mostly Cloudy 13000 ft
Mostly Cloudy 15000 ft
Dew Point 72 °F
Humidity 94%
Rainfall 0.08 in
Snow Depth Not available.
UV 0 out of 12
Pollen 8.20 out of 12
Air Quality Not available.
Flu Activity Not available.
METAR KBIX 170358Z AUTO 35002KT 10SM FEW006 BKN130 BKN150 23/22 A3001 RMK AO2 SLP165 T02340224

More Conditions Fewer Conditions

Pressure 30.02 in
Visibility 10.0 miles
Clouds Few 600 ft
Mostly Cloudy 13000 ft
Mostly Cloudy 15000 ft
Dew Point 72 °F
Humidity 94%
Rainfall 0.08 in
Snow Depth Not available.
UV 0 out of 12
Pollen 8.20 out of 12
Air Quality Not available.
Flu Activity Not available.
METAR KBIX 170358Z AUTO 35002KT 10SM FEW006 BKN130 BKN150 23/22 A3001 RMK AO2 SLP165 T02340224

More Conditions Fewer Conditions

10-Day Weather Forecast

Almanac

Astronomy

Sep. 16, 2014 Rise Set
Actual Time 6:40 AM CDT 6:59 PM CDT
Civil Twilight 6:16 AM CDT 7:23 PM CDT
Nautical Twilight 5:48 AM CDT 7:51 PM CDT
Astronomical Twilight 5:19 AM CDT 8:20 PM CDT
Moon 12:07 AM CDT (9/16) 2:05 PM CDT (9/16)
Length of Visible Light 13h 07m
Length of Day
12h 19m
Tomorrow will be 1m 49s shorter.
Last Quarter, 39% of the Moon is Illuminated
Sep 17
Last Quarter
Sep 24
New
Oct 1
First Quarter
Oct 8
Full
Oct 15
Last Quarter

Yesterday's Extremes

State Highs State Lows

Community

WunderPhotos

Upload Photos

1,753,966 photos uploaded!

Nearby

Air Quality

  Air Quality AQ Index Pollutant
Yesterday Good
PM2.5
Yesterday Good
OZONE
Tuesday Moderate
PM2.5
Tuesday Good
OZONE
Wednesday Moderate
PM2.5
Wednesday Good
OZONE
Thursday Good
OZONE
Thursday Good
PM2.5
Friday Good
OZONE
Friday Good
PM2.5

Snow Depth

Station Depth Elevation
No new snow has been reported.

Earthquake Activity

City Distance Mag. Time & Date
No recent earthquake activity has been reported nearby.
Minimum magnitude displayed is 2.5.

Coastal Water Temperatures

Place Temperature
No Stations Reporting

Nearby Weather Stations